Time;durP1;ratioP1;P1;durP2;ratioP2;P2;SDS_P1;SDS_P2;PMS_P1;PMS_P2;Temp;Humidity;BMP_temperature;BMP_pressure;BME280_temperature;BME280_humidity;BME280_pressure;Samples;Min_cycle;Max_cycle;Signal;HPM_P1;HPM_P2
2023/03/04 00:01:34;;;;;;;18.80;2.03;;;;;;;5.38;70.01;102479.28;5136936;27;20027;-88
2023/03/04 00:03:59;;;;;;;15.48;2.00;;;;;;;5.37;70.17;102474.88;5118215;27;20085;-88
2023/03/04 00:06:25;;;;;;;11.33;2.07;;;;;;;5.36;70.07;102482.13;5118514;27;20047;-88
2023/03/04 00:08:52;;;;;;;16.73;1.97;;;;;;;5.37;70.21;102480.28;5117904;27;20455;-87
2023/03/04 00:11:26;;;;;;;10.90;1.98;;;;;;;5.38;70.33;102487.38;5100816;27;20473;-89
2023/03/04 00:13:55;;;;;;;14.38;2.17;;;;;;;5.39;70.89;102489.06;5118206;27;20066;-88
2023/03/04 00:16:21;;;;;;;13.63;1.90;;;;;;;5.35;70.42;102477.72;5118130;27;20126;-88
2023/03/04 00:18:46;;;;;;;17.10;1.90;;;;;;;5.36;70.86;102489.31;5117798;27;20057;-88
2023/03/04 00:21:12;;;;;;;10.73;2.07;;;;;;;5.36;70.52;102478.56;5117869;27;20045;-87
2023/03/04 00:24:03;;;;;;;17.88;2.28;;;;;;;5.36;70.76;102470.50;5117248;27;20474;-88
2023/03/04 00:26:28;;;;;;;15.90;2.17;;;;;;;5.34;71.05;102459.03;5117812;27;20027;-89
2023/03/04 00:28:54;;;;;;;11.95;2.05;;;;;;;5.34;71.13;102465.25;5117796;27;20054;-88
2023/03/04 00:31:28;;;;;;;16.17;2.27;;;;;;;5.35;71.00;102458.88;5136654;27;20489;-89
2023/03/04 00:33:56;;;;;;;22.92;2.58;;;;;;;5.31;71.71;102464.69;5100828;27;20027;-88
2023/03/04 00:36:23;;;;;;;16.80;1.77;;;;;;;5.30;71.69;102461.16;5117596;27;20035;-88
2023/03/04 00:38:51;;;;;;;13.35;1.90;;;;;;;5.31;71.72;102470.91;5117032;27;20047;-89
2023/03/04 00:41:17;;;;;;;16.40;2.05;;;;;;;5.29;71.70;102462.13;5117108;27;20043;-88
2023/03/04 00:43:51;;;;;;;10.25;1.65;;;;;;;5.30;71.99;102462.97;5117902;27;20034;-88
2023/03/04 00:46:16;;;;;;;13.53;1.83;;;;;;;5.30;72.46;102465.66;5116315;27;20031;-88
2023/03/04 00:48:42;;;;;;;16.02;2.88;;;;;;;5.31;72.45;102465.53;5116669;27;20039;-88
2023/03/04 00:51:13;;;;;;;10.73;1.63;;;;;;;5.34;72.27;102469.78;5116916;27;20459;-88
2023/03/04 00:53:43;;;;;;;13.77;2.10;;;;;;;5.31;72.35;102462.84;5117005;27;20027;-88
2023/03/04 00:56:12;;;;;;;15.77;2.40;;;;;;;5.32;72.94;102466.41;5117279;27;20031;-88
2023/03/04 00:58:39;;;;;;;16.87;1.83;;;;;;;5.33;72.73;102471.63;5117170;27;20092;-88
2023/03/04 01:01:07;;;;;;;15.50;2.03;;;;;;;5.35;72.45;102471.50;5100188;27;20043;-88
2023/03/04 01:03:35;;;;;;;15.77;2.70;;;;;;;5.32;72.97;102467.25;5116986;27;20062;-88
2023/03/04 01:06:00;;;;;;;13.85;2.10;;;;;;;5.31;73.38;102468.22;5100447;27;20039;-88
2023/03/04 01:08:26;;;;;;;13.30;2.23;;;;;;;5.31;73.36;102473.59;5100044;27;20490;-88
2023/03/04 01:10:57;;;;;;;20.45;3.20;;;;;;;5.30;73.89;102477.31;5135049;27;20110;-88
2023/03/04 01:13:26;;;;;;;11.70;2.00;;;;;;;5.29;73.67;102475.59;5116992;27;20059;-87
2023/03/04 01:15:51;;;;;;;14.52;1.95;;;;;;;5.26;73.38;102476.72;5099671;27;20492;-88
2023/03/04 01:18:17;;;;;;;17.93;2.10;;;;;;;5.24;73.53;102470.63;5116846;27;20111;-88
2023/03/04 01:20:42;;;;;;;13.98;2.08;;;;;;;5.25;73.23;102471.47;5116791;27;20280;-88
2023/03/04 01:23:12;;;;;;;10.27;1.83;;;;;;;5.22;73.50;102469.06;5115976;27;20070;-88
2023/03/04 01:26:02;;;;;;;15.68;1.77;;;;;;;5.26;72.94;102476.72;5099952;27;20100;-88
2023/03/04 01:28:34;;;;;;;14.45;1.60;;;;;;;5.28;73.38;102479.28;5100715;27;20031;-88
2023/03/04 01:31:03;;;;;;;15.80;1.30;;;;;;;5.25;73.41;102466.09;5117591;27;20109;-88
2023/03/04 01:33:31;;;;;;;16.30;1.77;;;;;;;5.25;73.73;102472.31;5116941;27;20136;-88
2023/03/04 01:36:14;;;;;;;11.15;1.60;;;;;;;5.21;74.15;102462.84;5136230;27;20167;-88
2023/03/04 01:38:42;;;;;;;7.72;1.60;;;;;;;5.22;74.46;102464.53;5112754;28;20051;-88
2023/03/04 01:41:12;;;;;;;11.15;1.77;;;;;;;5.22;73.88;102455.63;5114132;28;20038;-88
2023/03/04 01:43:41;;;;;;;15.68;1.40;;;;;;;5.24;74.86;102459.00;5114246;28;20027;-89
2023/03/04 01:46:11;;;;;;;15.57;1.80;;;;;;;5.26;74.16;102460.56;5114801;28;20023;-88
2023/03/04 01:48:40;;;;;;;15.23;1.98;;;;;;;5.29;74.36;102454.06;5113559;28;20055;-88
2023/03/04 01:51:23;;;;;;;19.20;1.85;;;;;;;5.30;73.14;102450.41;5112895;28;20031;-89
2023/03/04 01:53:53;;;;;;;18.83;1.65;;;;;;;5.26;73.87;102447.13;5112615;28;20475;-88
2023/03/04 01:56:45;;;;;;;12.63;1.40;;;;;;;5.31;73.51;102448.53;5112777;28;20122;-88
2023/03/04 01:59:24;;;;;;;16.00;1.65;;;;;;;5.29;73.53;102442.47;5114305;28;20027;-88
2023/03/04 02:01:53;;;;;;;20.02;2.30;;;;;;;5.25;73.83;102433.81;5113822;28;20503;-88
2023/03/04 02:04:37;;;;;;;15.35;1.30;;;;;;;5.26;73.50;102438.19;5112661;28;20032;-88
2023/03/04 02:07:03;;;;;;;8.00;1.17;;;;;;;5.23;73.80;102428.56;5096947;28;20031;-88
2023/03/04 02:09:32;;;;;;;12.02;1.60;;;;;;;5.22;74.36;102429.53;5112452;28;20024;-87
2023/03/04 02:11:58;;;;;;;15.45;1.92;;;;;;;5.22;74.38;102428.72;5112426;28;20031;-88
2023/03/04 02:14:24;;;;;;;10.52;1.08;;;;;;;5.21;74.01;102422.47;5112576;28;20103;-88
2023/03/04 02:16:51;;;;;;;13.63;1.05;;;;;;;5.19;74.68;102426.31;5112458;28;20035;-88
2023/03/04 02:19:19;;;;;;;12.32;1.33;;;;;;;5.18;75.08;102428.16;5112591;28;20630;-88
2023/03/04 02:21:45;;;;;;;12.60;1.87;;;;;;;5.14;75.32;102426.72;5112627;28;20055;-88
2023/03/04 02:24:35;;;;;;;17.63;1.70;;;;;;;5.19;73.94;102429.00;5112155;28;20532;-89
2023/03/04 02:27:01;;;;;;;13.70;1.42;;;;;;;5.14;74.71;102424.03;5112702;28;20019;-90
2023/03/04 02:29:34;;;;;;;11.40;1.37;;;;;;;5.12;75.05;102414.41;5112335;28;20589;-88
2023/03/04 02:32:02;;;;;;;13.32;1.60;;;;;;;5.12;75.03;102419.78;5112187;28;20028;-88
2023/03/04 02:34:33;;;;;;;15.10;1.17;;;;;;;5.13;74.58;102421.50;5115925;28;20036;-88
2023/03/04 02:37:00;;;;;;;9.52;1.10;;;;;;;5.10;74.64;102414.53;5117818;28;20108;-88
2023/03/04 02:39:38;;;;;;;12.63;1.95;;;;;;;5.12;74.74;102411.72;5115779;28;20044;-87
2023/03/04 02:42:10;;;;;;;13.88;1.25;;;;;;;5.10;75.06;102412.69;5117471;28;20041;-88
2023/03/04 02:44:47;;;;;;;10.50;1.55;;;;;;;5.10;75.19;102406.47;5115913;28;20030;-87
2023/03/04 02:47:17;;;;;;;11.70;1.50;;;;;;;5.09;75.40;102402.94;5116363;28;20028;-88
2023/03/04 02:49:46;;;;;;;10.75;1.33;;;;;;;5.14;74.97;102412.41;5116197;28;20024;-87
2023/03/04 02:52:21;;;;;;;18.40;1.15;;;;;;;5.15;75.07;102404.19;5115936;28;20051;-88
2023/03/04 02:54:54;;;;;;;10.75;1.17;;;;;;;5.14;75.11;102405.19;5116960;28;20499;-87
2023/03/04 02:57:22;;;;;;;11.38;1.42;;;;;;;5.13;75.98;102400.81;5115854;28;20062;-88
2023/03/04 02:59:50;;;;;;;12.55;1.40;;;;;;;5.13;76.04;102398.09;5115958;28;20112;-88
2023/03/04 03:02:22;;;;;;;9.48;1.10;;;;;;;5.13;75.49;102398.09;5099048;28;20085;-88
2023/03/04 03:04:51;;;;;;;10.88;0.95;;;;;;;5.13;75.85;102395.41;5116809;28;20075;-88
2023/03/04 03:07:19;;;;;;;6.80;1.00;;;;;;;5.12;75.38;102396.41;5116042;28;20356;-88
2023/03/04 03:09:44;;;;;;;9.57;1.10;;;;;;;5.13;75.74;102394.59;5115687;28;20417;-88
2023/03/04 03:12:10;;;;;;;10.70;1.23;;;;;;;5.09;75.90;102388.63;5115559;28;20062;-87
2023/03/04 03:14:38;;;;;;;5.53;0.90;;;;;;;5.14;75.57;102396.25;5115751;28;20038;-88
2023/03/04 03:17:06;;;;;;;11.82;0.85;;;;;;;5.09;75.96;102386.78;5115745;28;20269;-88
2023/03/04 03:19:31;;;;;;;13.20;1.50;;;;;;;5.09;75.89;102385.94;5115416;28;20080;-88
2023/03/04 03:22:04;;;;;;;9.87;1.30;;;;;;;5.07;76.42;102388.75;5098363;28;20039;-89
2023/03/04 03:24:32;;;;;;;12.68;1.90;;;;;;;5.08;76.37;102387.78;5115406;28;20115;-88
2023/03/04 03:27:00;;;;;;;15.65;1.52;;;;;;;5.10;76.50;102383.09;5099017;28;20067;-88
2023/03/04 03:29:28;;;;;;;15.95;1.30;;;;;;;5.07;76.87;102382.53;5115535;28;20068;-88
2023/03/04 03:31:56;;;;;;;11.82;1.52;;;;;;;5.10;76.86;102390.31;5115654;28;20027;-88
2023/03/04 03:34:23;;;;;;;13.10;1.23;;;;;;;5.09;76.60;102383.22;5116747;28;20513;-88
2023/03/04 03:36:51;;;;;;;10.27;1.35;;;;;;;5.05;76.78;102382.69;5115365;28;20452;-88
2023/03/04 03:39:17;;;;;;;6.40;0.95;;;;;;;5.07;77.04;102386.06;5130115;27;20055;-88
2023/03/04 03:41:42;;;;;;;11.80;1.70;;;;;;;5.05;77.16;102382.69;5118365;27;20042;-88
2023/03/04 03:44:08;;;;;;;18.37;1.50;;;;;;;5.05;77.09;102377.31;5118969;27;20123;-88
2023/03/04 03:46:34;;;;;;;13.27;1.10;;;;;;;5.02;77.50;102376.72;5117287;27;20291;-88
2023/03/04 03:49:00;;;;;;;12.33;1.40;;;;;;;5.04;76.99;102369.38;5118563;27;20030;-88
2023/03/04 03:51:25;;;;;;;10.48;1.13;;;;;;;5.06;77.86;102380.84;5118628;27;20546;-87
2023/03/04 03:53:53;;;;;;;15.18;1.25;;;;;;;5.03;77.39;102373.88;5117722;27;20137;-88
2023/03/04 03:56:19;;;;;;;13.38;1.25;;;;;;;5.02;77.48;102380.28;5117712;27;20066;-88
2023/03/04 03:58:50;;;;;;;25.38;1.65;;;;;;;5.06;77.61;102378.13;5118148;27;20390;-89
2023/03/04 04:01:18;;;;;;;10.07;0.93;;;;;;;5.02;77.79;102376.72;5136859;27;20027;-88
2023/03/04 04:03:43;;;;;;;10.50;1.07;;;;;;;5.00;77.83;102376.03;5117908;27;20023;-88
2023/03/04 04:06:12;;;;;;;13.52;1.58;;;;;;;5.02;77.06;102380.28;5101235;27;20083;-88
2023/03/04 04:08:38;;;;;;;16.53;1.53;;;;;;;4.99;76.58;102379.69;5117880;27;20035;-88
2023/03/04 04:11:03;;;;;;;13.20;1.15;;;;;;;4.99;76.31;102383.25;5118275;27;20498;-88
2023/03/04 04:13:32;;;;;;;10.95;1.10;;;;;;;5.00;76.04;102387.63;5117910;27;20027;-88
2023/03/04 04:15:58;;;;;;;14.38;1.42;;;;;;;4.97;75.37;102381.69;5118097;27;20390;-88
2023/03/04 04:18:26;;;;;;;8.25;1.17;;;;;;;4.94;75.31;102377.44;5136486;27;20027;-88
2023/03/04 04:20:55;;;;;;;10.93;1.30;;;;;;;4.92;75.34;102374.88;5136488;27;20062;-88
2023/03/04 04:23:23;;;;;;;11.65;1.00;;;;;;;4.92;75.94;102374.88;5117625;27;20023;-88
2023/03/04 04:25:53;;;;;;;9.30;1.50;;;;;;;4.94;75.90;102379.28;5136549;27;20031;-88
2023/03/04 04:28:18;;;;;;;11.07;1.20;;;;;;;4.94;75.81;102387.34;5117566;27;20023;-88
2023/03/04 04:30:46;;;;;;;13.30;1.45;;;;;;;4.92;76.05;102379.41;5118094;27;20027;-89
2023/03/04 04:33:15;;;;;;;12.43;1.27;;;;;;;4.92;76.34;102376.72;5101095;27;20122;-88
2023/03/04 04:35:40;;;;;;;12.98;1.10;;;;;;;4.92;76.08;102377.56;5117869;27;20058;-88
2023/03/04 04:38:09;;;;;;;12.30;1.30;;;;;;;4.93;76.21;102381.09;5100393;27;20077;-88
2023/03/04 04:40:41;;;;;;;11.60;1.42;;;;;;;4.94;76.65;102384.66;5117600;27;20047;-88
2023/03/04 04:43:07;;;;;;;10.48;1.08;;;;;;;4.97;76.35;102387.06;5117251;27;20019;-88
2023/03/04 04:45:38;;;;;;;9.35;1.02;;;;;;;4.92;75.97;102384.81;5135926;27;20083;-88
2023/03/04 04:48:07;;;;;;;10.13;1.17;;;;;;;4.91;76.15;102385.78;5117697;27;20054;-88
2023/03/04 04:50:56;;;;;;;14.55;1.27;;;;;;;4.96;76.21;102391.59;5135745;27;20098;-88
2023/03/04 04:53:21;;;;;;;12.15;1.85;;;;;;;4.91;76.50;102389.31;5135306;27;20034;-88
2023/03/04 04:55:47;;;;;;;12.13;1.30;;;;;;;4.95;75.76;102403.34;5117275;27;20394;-88
2023/03/04 04:58:12;;;;;;;7.45;1.10;;;;;;;4.92;76.02;102395.56;5116448;27;20027;-88
2023/03/04 05:00:38;;;;;;;7.60;0.97;;;;;;;4.92;76.25;102399.09;5117393;27;20031;-88
2023/03/04 05:03:03;;;;;;;9.77;0.90;;;;;;;4.89;76.23;102398.53;5117058;27;20471;-89
2023/03/04 05:05:34;;;;;;;11.27;2.13;;;;;;;4.86;76.50;102388.91;5116742;27;20035;-88
2023/03/04 05:08:01;;;;;;;9.85;1.20;;;;;;;4.85;76.56;102394.41;5084012;27;20273;-88
2023/03/04 05:10:27;;;;;;;12.35;1.77;;;;;;;4.87;76.55;102397.81;5116906;27;20027;-88
2023/03/04 05:12:55;;;;;;;11.70;1.10;;;;;;;4.84;76.41;102396.25;5099695;27;20035;-89
2023/03/04 05:15:23;;;;;;;10.73;1.00;;;;;;;4.87;76.38;102395.97;5116881;27;20038;-88
2023/03/04 05:17:51;;;;;;;10.98;1.00;;;;;;;4.86;75.69;102385.38;5135530;27;20059;-88
2023/03/04 05:20:24;;;;;;;12.63;0.93;;;;;;;4.88;76.29;102388.75;5135313;27;20030;-88
2023/03/04 05:22:57;;;;;;;6.93;1.10;;;;;;;4.85;76.53;102386.34;5116295;27;20038;-88
2023/03/04 05:25:22;;;;;;;11.63;1.30;;;;;;;4.83;77.18;102388.34;5135278;27;20023;-87
2023/03/04 05:27:53;;;;;;;12.80;1.25;;;;;;;4.83;77.01;102391.03;5116214;27;20027;-88
2023/03/04 05:30:19;;;;;;;10.43;1.30;;;;;;;4.78;76.98;102393.28;5116511;27;20497;-88
2023/03/04 05:32:46;;;;;;;10.02;1.20;;;;;;;4.82;77.05;102400.06;5135007;27;20035;-89
2023/03/04 05:35:13;;;;;;;16.17;1.55;;;;;;;4.76;76.89;102389.88;5099390;27;20034;-87
2023/03/04 05:37:40;;;;;;;11.70;1.50;;;;;;;4.76;77.28;102392.56;5116428;27;20122;-88
2023/03/04 05:40:09;;;;;;;15.13;1.45;;;;;;;4.76;77.44;102392.56;5112731;28;20518;-88
2023/03/04 05:42:36;;;;;;;9.83;1.27;;;;;;;4.74;77.75;102393.56;5112947;28;20038;-88
2023/03/04 05:45:02;;;;;;;11.15;1.83;;;;;;;4.76;77.25;102388.03;5096174;28;20105;-88
2023/03/04 05:47:39;;;;;;;9.88;0.90;;;;;;;4.78;77.03;102396.81;5112593;28;20482;-88
2023/03/04 05:50:10;;;;;;;9.27;1.27;;;;;;;4.79;77.07;102384.22;5113265;28;20031;-88
2023/03/04 05:52:35;;;;;;;13.02;1.08;;;;;;;4.80;76.46;102393.97;5112660;28;20084;-88
2023/03/04 05:55:01;;;;;;;9.48;1.58;;;;;;;4.80;76.25;102397.53;5112424;28;20027;-88
2023/03/04 05:57:30;;;;;;;9.10;0.87;;;;;;;4.80;76.81;102396.66;5113774;28;20051;-88
2023/03/04 05:59:55;;;;;;;11.95;1.30;;;;;;;4.84;77.18;102407.03;5112484;28;20115;-88
2023/03/04 06:02:21;;;;;;;11.17;1.50;;;;;;;4.83;77.24;102404.47;5113583;28;20026;-88
2023/03/04 06:04:46;;;;;;;5.67;0.90;;;;;;;4.82;77.18;102402.75;5095371;28;20032;-88
2023/03/04 06:07:12;;;;;;;8.55;1.08;;;;;;;4.81;76.77;102399.22;5112545;28;20020;-87
2023/03/04 06:09:37;;;;;;;11.73;1.90;;;;;;;4.81;76.96;102404.59;5113167;28;20023;-88
2023/03/04 06:12:03;;;;;;;8.47;1.37;;;;;;;4.84;77.23;102404.34;5112647;28;20087;-88
2023/03/04 06:14:28;;;;;;;11.25;1.30;;;;;;;4.81;78.56;102406.44;5112423;28;20495;-88
2023/03/04 06:16:54;;;;;;;10.37;1.00;;;;;;;4.83;78.01;102413.38;5112233;28;20023;-87
2023/03/04 06:19:24;;;;;;;16.10;1.50;;;;;;;4.85;78.92;102403.31;5112551;28;20019;-88
2023/03/04 06:21:50;;;;;;;8.43;1.33;;;;;;;4.79;79.53;102405.75;5096174;28;20035;-88
2023/03/04 06:24:15;;;;;;;9.10;0.87;;;;;;;4.80;80.00;102408.28;5113338;28;20103;-88
2023/03/04 06:26:43;;;;;;;9.13;0.90;;;;;;;4.80;80.62;102410.09;5112584;28;20028;-88
2023/03/04 06:29:09;;;;;;;23.75;2.08;;;;;;;4.81;79.96;102409.97;5113326;28;20273;-86
2023/03/04 06:31:42;;;;;;;8.43;1.03;;;;;;;4.84;80.41;102424.97;5112739;28;20464;-90
2023/03/04 06:34:11;;;;;;;9.57;1.00;;;;;;;4.78;81.27;102415.63;5114175;28;20308;-90
2023/03/04 06:36:38;;;;;;;14.02;1.00;;;;;;;4.79;82.61;102416.50;5112776;28;20016;-92
2023/03/04 06:39:07;;;;;;;9.23;0.80;;;;;;;4.73;82.68;102416.03;5112794;28;20056;-91
2023/03/04 06:41:33;;;;;;;6.95;1.48;;;;;;;4.73;83.16;102405.28;5112888;28;20032;-90
2023/03/04 06:43:59;;;;;;;9.13;1.00;;;;;;;4.71;82.90;102415.34;5112472;28;20031;-89
2023/03/04 06:46:25;;;;;;;7.68;1.38;;;;;;;4.72;83.55;102411.69;5112431;28;20027;-88
2023/03/04 06:48:50;;;;;;;7.20;1.67;;;;;;;4.71;83.68;102420.72;5112247;28;20019;-85
2023/03/04 06:51:18;;;;;;;13.23;1.05;;;;;;;4.74;84.00;102419.59;5113396;28;20030;-88
2023/03/04 06:53:44;;;;;;;3.67;1.00;;;;;;;4.80;84.20;102428.94;5111675;28;20459;-88
2023/03/04 06:56:11;;;;;;;11.60;1.42;;;;;;;4.80;84.29;102428.94;5112312;28;20131;-85
2023/03/04 06:58:37;;;;;;;8.38;0.70;;;;;;;4.82;84.48;102432.34;5112498;28;20092;-86
2023/03/04 07:01:39;;;;;;;8.23;0.80;;;;;;;4.84;83.31;102433.91;5112317;28;20031;-86
2023/03/04 07:04:04;;;;;;;6.88;1.38;;;;;;;4.83;83.79;102432.22;5100096;28;20040;-85
2023/03/04 07:06:30;;;;;;;7.73;0.90;;;;;;;4.85;83.52;102427.53;5113633;28;20456;-85
2023/03/04 07:08:56;;;;;;;7.33;1.33;;;;;;;4.84;83.98;102431.22;5112112;28;20070;-85
2023/03/04 07:11:23;;;;;;;8.57;1.17;;;;;;;4.86;83.84;102439.16;5113276;28;20035;-85
2023/03/04 07:13:49;;;;;;;8.93;1.20;;;;;;;4.88;83.96;102437.16;5113421;28;20042;-85
2023/03/04 07:16:18;;;;;;;9.07;2.05;;;;;;;4.92;83.90;102436.75;5112046;28;20031;-85
2023/03/04 07:18:45;;;;;;;12.60;1.80;;;;;;;4.97;83.94;102444.41;5112004;28;20031;-85
2023/03/04 07:21:12;;;;;;;6.87;1.20;;;;;;;5.01;83.86;102440.44;5098089;28;20088;-85
2023/03/04 07:23:37;;;;;;;9.15;1.20;;;;;;;5.08;83.78;102446.13;5097942;28;20040;-85
2023/03/04 07:26:03;;;;;;;6.00;1.47;;;;;;;5.14;83.26;102444.69;5114915;28;20125;-85
2023/03/04 07:28:29;;;;;;;11.05;1.60;;;;;;;5.20;83.19;102458.44;5108795;28;20262;-85
2023/03/04 07:30:54;;;;;;;10.40;1.10;;;;;;;5.29;83.33;102453.22;5111250;28;20446;-85
2023/03/04 07:33:20;;;;;;;12.27;1.40;;;;;;;5.38;82.57;102452.38;5098764;28;20067;-85
2023/03/04 07:35:45;;;;;;;10.07;1.33;;;;;;;5.47;82.76;102456.91;5098593;28;20032;-85
2023/03/04 07:38:10;;;;;;;9.83;1.60;;;;;;;5.53;82.76;102455.47;5096462;27;20131;-85
2023/03/04 07:40:36;;;;;;;10.05;1.10;;;;;;;5.58;82.54;102462.13;5085051;27;20035;-85
2023/03/04 07:43:02;;;;;;;7.68;1.30;;;;;;;5.66;82.29;102460.59;5137346;27;20405;-85
2023/03/04 07:45:28;;;;;;;12.15;1.65;;;;;;;5.66;82.48;102466.81;5136540;27;20038;-85
2023/03/04 07:47:53;;;;;;;11.13;1.50;;;;;;;5.67;82.06;102465.81;5137096;27;20031;-85
2023/03/04 07:50:20;;;;;;;9.33;1.73;;;;;;;5.72;82.18;102473.47;5136961;27;20041;-85
2023/03/04 07:52:47;;;;;;;5.43;1.35;;;;;;;5.71;82.25;102471.75;5101906;27;20466;-85
2023/03/04 07:55:14;;;;;;;8.23;2.42;;;;;;;5.69;82.08;102465.69;5136496;27;20027;-85
2023/03/04 07:57:46;;;;;;;8.10;1.20;;;;;;;5.74;82.55;102471.47;5137012;27;20095;-85
2023/03/04 08:00:14;;;;;;;8.50;1.27;;;;;;;5.69;82.85;102469.22;5136722;27;20023;-85
2023/03/04 08:02:40;;;;;;;6.97;1.40;;;;;;;5.62;83.67;102474.34;5136759;27;20027;-85
2023/03/04 08:05:06;;;;;;;8.43;1.50;;;;;;;5.58;83.61;102475.59;5118177;27;20463;-85
2023/03/04 08:07:32;;;;;;;8.10;1.25;;;;;;;5.58;83.27;102474.72;5101391;27;20033;-85
2023/03/04 08:09:57;;;;;;;9.90;1.63;;;;;;;5.56;83.68;102468.66;5118222;27;20031;-85
2023/03/04 08:12:25;;;;;;;10.20;1.45;;;;;;;5.55;84.71;102478.59;5136661;27;20118;-85
2023/03/04 08:14:51;;;;;;;11.20;1.75;;;;;;;5.55;84.83;102477.72;5101268;27;20069;-85
2023/03/04 08:17:17;;;;;;;8.88;1.60;;;;;;;5.56;84.59;102472.19;5101565;27;20035;-85
2023/03/04 08:19:42;;;;;;;8.97;2.10;;;;;;;5.63;84.29;102472.47;5117883;27;20031;-85
2023/03/04 08:22:08;;;;;;;11.57;1.90;;;;;;;5.67;84.91;102481.97;5117865;27;20027;-86
2023/03/04 08:24:33;;;;;;;10.63;1.50;;;;;;;5.70;85.02;102484.38;5117363;27;20054;-85
2023/03/04 08:26:59;;;;;;;9.80;1.80;;;;;;;5.77;85.10;102487.34;5117739;27;20027;-85
2023/03/04 08:29:24;;;;;;;9.98;1.60;;;;;;;5.83;85.30;102477.84;5100821;27;20023;-85
2023/03/04 08:31:54;;;;;;;10.33;1.47;;;;;;;5.83;85.15;102484.09;5135251;27;20451;-85
2023/03/04 08:34:21;;;;;;;7.13;1.30;;;;;;;5.84;85.06;102476.84;5117675;27;20463;-85
2023/03/04 08:36:46;;;;;;;12.73;1.70;;;;;;;5.87;85.21;102479.25;5100857;27;20475;-85
2023/03/04 08:39:13;;;;;;;7.97;1.15;;;;;;;5.91;84.81;102468.03;5100709;27;20062;-85
2023/03/04 08:41:39;;;;;;;9.37;1.70;;;;;;;6.01;85.50;102480.66;5117275;27;20431;-86
2023/03/04 08:44:09;;;;;;;10.57;2.00;;;;;;;6.12;85.10;102475.97;5100080;27;20073;-85
2023/03/04 08:46:38;;;;;;;9.85;1.50;;;;;;;6.30;84.25;102480.59;5135431;27;20058;-85
2023/03/04 08:49:04;;;;;;;4.78;1.10;;;;;;;6.31;84.02;102483.13;5135780;27;20031;-85
2023/03/04 08:51:30;;;;;;;9.82;1.50;;;;;;;6.20;84.19;102477.06;5117264;27;20494;-85
2023/03/04 08:53:58;;;;;;;9.23;1.65;;;;;;;6.12;84.88;102469.72;5099511;27;20035;-85
2023/03/04 08:56:23;;;;;;;5.15;1.33;;;;;;;6.23;85.96;102472.25;5117464;27;20118;-80
2023/03/04 08:58:49;;;;;;;9.50;1.80;;;;;;;6.56;85.39;102479.94;5135410;27;20123;-85
2023/03/04 09:01:15;;;;;;;8.40;1.60;;;;;;;6.81;81.91;102473.00;5104449;28;20036;-85
2023/03/04 09:03:41;;;;;;;6.30;1.50;;;;;;;7.07;81.59;102469.56;5096118;27;20051;-85
2023/03/04 09:06:08;;;;;;;10.80;2.13;;;;;;;7.33;80.15;102469.66;5098513;28;20028;-85
2023/03/04 09:08:34;;;;;;;8.50;1.33;;;;;;;7.44;77.69;102457.75;5114809;28;20055;-85
2023/03/04 09:11:00;;;;;;;7.30;1.70;;;;;;;7.63;77.69;102467.56;5115337;28;20111;-85
2023/03/04 09:13:28;;;;;;;9.20;1.60;;;;;;;7.86;76.01;102466.03;5113508;28;20051;-85
2023/03/04 09:15:53;;;;;;;10.02;1.25;;;;;;;7.95;75.37;102463.41;5114426;28;20032;-85
2023/03/04 09:18:21;;;;;;;5.40;1.20;;;;;;;8.04;74.51;102459.75;5113429;28;20136;-85
2023/03/04 09:20:47;;;;;;;7.57;1.52;;;;;;;8.05;73.54;102465.00;5114985;27;20038;-85
2023/03/04 09:23:13;;;;;;;8.57;1.10;;;;;;;8.08;73.73;102451.16;5134560;27;20118;-86
2023/03/04 09:25:42;;;;;;;7.20;1.20;;;;;;;8.05;73.24;102456.06;5134997;27;20035;-85
2023/03/04 09:28:10;;;;;;;6.30;1.20;;;;;;;8.07;73.44;102452.19;5100169;27;20031;-86
2023/03/04 09:30:36;;;;;;;5.57;1.20;;;;;;;8.23;72.28;102458.69;5134444;27;20027;-86
2023/03/04 09:33:01;;;;;;;5.38;0.88;;;;;;;8.34;71.99;102453.00;5134681;27;20031;-86
2023/03/04 09:35:28;;;;;;;5.97;1.20;;;;;;;8.43;72.57;102448.50;5099541;27;20127;-86
2023/03/04 09:37:54;;;;;;;3.88;0.85;;;;;;;8.43;71.46;102438.50;5134849;27;20050;-85
2023/03/04 09:40:27;;;;;;;4.07;0.73;;;;;;;8.57;70.99;102447.06;5123651;27;20075;-86
2023/03/04 09:42:58;;;;;;;6.22;0.90;;;;;;;8.72;70.48;102449.97;5096073;28;20036;-86
2023/03/04 09:45:28;;;;;;;3.53;0.80;;;;;;;8.80;69.62;102446.44;5096300;28;20130;-85
2023/03/04 09:47:56;;;;;;;7.35;0.98;;;;;;;8.93;69.81;102444.97;5114504;28;20023;-86
2023/03/04 09:50:21;;;;;;;2.93;0.60;;;;;;;8.95;68.12;102442.94;5114446;28;20032;-86
2023/03/04 09:53:11;;;;;;;6.18;0.65;;;;;;;9.13;67.99;102442.81;5114003;28;20032;-86
2023/03/04 09:55:42;;;;;;;4.50;0.70;;;;;;;9.27;67.33;102443.16;5097404;28;20483;-85
2023/03/04 09:58:35;;;;;;;2.93;0.70;;;;;;;9.46;66.71;102453.69;5095803;28;20038;-86
2023/03/04 10:01:09;;;;;;;5.40;0.63;;;;;;;9.71;65.51;102444.69;5095592;28;20036;-85
2023/03/04 10:03:38;;;;;;;1.38;0.63;;;;;;;9.70;65.20;102443.00;5122830;27;20038;-85
2023/03/04 10:06:06;;;;;;;2.58;0.68;;;;;;;9.52;64.96;102449.44;5116368;27;20503;-85
2023/03/04 10:08:48;;;;;;;3.72;0.88;;;;;;;9.46;66.37;102442.84;5134181;27;20027;-85
2023/03/04 10:11:22;;;;;;;3.43;1.10;;;;;;;9.51;65.52;102434.22;5116112;28;20063;-86
2023/03/04 10:14:06;;;;;;;4.75;0.80;;;;;;;9.48;65.30;102443.53;5134392;28;20030;-86
2023/03/04 10:16:41;;;;;;;3.40;1.00;;;;;;;9.47;65.73;102432.84;5115752;28;20046;-85
2023/03/04 10:19:12;;;;;;;2.83;0.90;;;;;;;9.44;64.73;102439.44;5134007;28;20427;-86
2023/03/04 10:21:42;;;;;;;6.28;1.40;;;;;;;9.57;64.81;102441.66;5134264;28;20023;-86
2023/03/04 10:24:13;;;;;;;5.57;1.00;;;;;;;9.83;63.05;102436.06;5134227;28;20527;-86
2023/03/04 10:26:43;;;;;;;3.90;0.70;;;;;;;9.98;62.56;102429.91;5134710;28;20034;-85
2023/03/04 10:29:16;;;;;;;4.22;0.82;;;;;;;10.34;61.96;102424.91;5134284;28;20030;-85
2023/03/04 10:31:43;;;;;;;5.32;0.90;;;;;;;10.73;59.90;102422.38;5115361;28;20035;-85
2023/03/04 10:34:13;;;;;;;5.47;0.70;;;;;;;10.73;59.02;102420.50;5115382;28;20569;-85
2023/03/04 10:37:00;;;;;;;2.50;0.57;;;;;;;10.65;58.75;102424.13;5134164;28;20062;-86
2023/03/04 10:39:35;;;;;;;3.83;0.98;;;;;;;10.30;59.85;102420.81;5133779;28;20043;-85
2023/03/04 10:42:04;;;;;;;4.05;0.80;;;;;;;9.97;60.96;102425.53;5115586;28;20027;-85
2023/03/04 10:44:33;;;;;;;8.23;0.80;;;;;;;9.68;62.18;102417.94;5115537;28;20023;-86
2023/03/04 10:46:59;;;;;;;3.25;0.65;;;;;;;9.34;63.54;102413.56;5115256;28;20038;-86
2023/03/04 10:49:27;;;;;;;5.47;1.20;;;;;;;9.23;64.75;102421.00;5133987;28;20059;-86
2023/03/04 10:52:23;;;;;;;6.28;0.80;;;;;;;9.17;65.21;102416.25;5115643;28;20027;-86
2023/03/04 10:54:59;;;;;;;4.53;0.85;;;;;;;9.22;65.10;102415.75;5116254;27;20362;-86
2023/03/04 10:57:34;;;;;;;3.67;0.80;;;;;;;9.22;65.29;102423.88;5137951;27;20019;-86
2023/03/04 11:00:02;;;;;;;4.97;0.90;;;;;;;9.15;65.56;102423.69;5137931;27;20050;-86
2023/03/04 11:02:33;;;;;;;6.33;0.60;;;;;;;9.06;65.26;102413.84;5119111;27;20031;-84
2023/03/04 11:05:01;;;;;;;3.60;0.90;;;;;;;8.97;66.29;102423.00;5120735;27;20027;-85
2023/03/04 11:07:27;;;;;;;3.58;1.00;;;;;;;8.91;66.37;102417.22;5118991;27;20031;-86
2023/03/04 11:09:55;;;;;;;7.63;1.10;;;;;;;8.91;66.74;102416.38;5119386;27;20031;-85
2023/03/04 11:12:32;;;;;;;4.68;0.80;;;;;;;8.70;67.90;102406.00;5137424;27;20383;-86
2023/03/04 11:14:57;;;;;;;2.83;1.02;;;;;;;8.55;69.55;102411.22;5137909;27;20114;-86
2023/03/04 11:17:44;;;;;;;2.93;0.70;;;;;;;8.40;70.69;102411.78;5137333;27;20475;-86
2023/03/04 11:20:27;;;;;;;3.05;0.85;;;;;;;8.29;71.76;102403.13;5137923;27;20075;-86
2023/03/04 11:22:55;;;;;;;5.28;0.90;;;;;;;8.16;73.09;102404.38;5118847;27;20113;-86
2023/03/04 11:25:33;;;;;;;2.47;0.90;;;;;;;8.17;73.59;102399.84;5136561;27;20518;-86
2023/03/04 11:28:05;;;;;;;3.60;1.27;;;;;;;8.23;74.39;102400.03;5119145;27;20545;-86
2023/03/04 11:30:40;;;;;;;5.03;1.10;;;;;;;8.45;73.51;102400.50;5137199;27;20083;-85
2023/03/04 11:33:15;;;;;;;4.78;1.38;;;;;;;8.66;73.88;102399.22;5137286;27;20027;-86
2023/03/04 11:35:49;;;;;;;5.90;1.30;;;;;;;8.70;75.09;102390.59;5118884;27;20027;-88
2023/03/04 11:38:30;;;;;;;3.70;1.17;;;;;;;8.81;75.06;102394.03;5118179;27;20024;-88